11:26
Airports
Links
Donate
Help keep this website running!
PayPal
Bitcoin
METAR
CYXR 111100Z AUTO 23003KT 9SM CLR M24/M26 A2998 RMK ICG SLP183
Current Weather Conditions at CYXR
VFR 11:00:00 11-12-17
Automated station, no observer
Altimeter:29.98 hg
Temp:-24.0°c -11°f
Dew point:-26.0°c -15°f
Wind:3 knots, 3.5 mph, 2 m/s, from 230°
Visibility:9.0 statute miles
(CLR) Clear
Past METAR reports
VFR 10:00:00 11-12-17
Automated station, no observer
Altimeter:29.98 hg
Temp:-24.0°c -11°f
Dew point:-26.0°c -15°f
Wind:3 knots, 3.5 mph, 2 m/s, from 260°
Visibility:9.0 statute miles
15000(BKN) Broken
CYXR 111000Z AUTO 26003KT 9SM BKN150 M24/M26 A2998 RMK ICG SLP182
VFR 09:28:00 11-12-17
Automated station, no observer
Altimeter:29.98 hg
Temp:-23.0°c -9°f
Dew point:-25.0°c -13°f
Wind:3 knots, 3.5 mph, 2 m/s, from 260°
Visibility:9.0 statute miles
16000(BKN) Broken
1700(SCT) Scattered
CYXR 110928Z AUTO 26003KT 9SM SCT017 BKN160 M23/M25 A2998 RMK ICG SLP179
MVFR 09:00:00 11-12-17
Automated station, no observer
Altimeter:29.98 hg
Temp:-22.0°c -8°f
Dew point:-25.0°c -13°f
Wind:5 knots, 5.8 mph, 3 m/s, from 280°
Visibility:9.0 statute miles
1700(BKN) Broken
CYXR 110900Z AUTO 28005KT 9SM BKN017 M22/M25 A2998 RMK ICG SLP179
MVFR 08:00:00 11-12-17
Automated station, no observer
Altimeter:29.98 hg
Temp:-22.0°c -8°f
Dew point:-25.0°c -13°f
Wind:6 knots, 6.9 mph, 3 m/s, from 320°
Visibility:9.0 statute miles
1700(BKN) Broken
CYXR 110800Z AUTO 32006KT 9SM BKN017 M22/M25 A2998 RMK ICG INTMT SLP178
MVFR 07:30:00 11-12-17
Automated station, no observer
Altimeter:29.97 hg
Temp:-22.0°c -8°f
Dew point:-25.0°c -13°f
Wind:9 knots, 10.4 mph, 5 m/s, from 290°
Visibility:9.0 statute miles
1900(BKN) Broken
CYXR 110730Z AUTO 29009KT 9SM BKN019 M22/M25 A2997 RMK ICG SLP177
VFR 07:16:00 11-12-17
Automated station, no observer
Altimeter:29.97 hg
Temp:-22.0°c -8°f
Dew point:-25.0°c -13°f
Wind:6 knots, 6.9 mph, 3 m/s, from 290°
Visibility:9.0 statute miles
1900(SCT) Scattered
CYXR 110716Z AUTO 29006KT 9SM SCT019 M22/M25 A2997 RMK ICG SLP177
TAF
No TAF for CYXR
Forecast at CYXR
No Forecast Reports for CYXR